Time;durP1;ratioP1;P1;durP2;ratioP2;P2;SDS_P1;SDS_P2;PMS_P1;PMS_P2;Temp;Humidity;BMP_temperature;BMP_pressure;BME280_temperature;BME280_humidity;BME280_pressure;Samples;Min_cycle;Max_cycle;Signal;HPM_P1;HPM_P2
2024/01/08 00:00:21;;;;;;;11.82;4.25;;;;;;;-16.56;50.74;100777.56;5078106;28;20036;-58
2024/01/08 00:02:48;;;;;;;14.50;4.32;;;;;;;-16.56;50.77;100765.09;5082960;28;20507;-57
2024/01/08 00:05:15;;;;;;;15.38;5.18;;;;;;;-16.52;50.17;100772.09;5069527;28;20039;-59
2024/01/08 00:07:42;;;;;;;9.52;3.92;;;;;;;-16.71;50.57;100733.06;5082337;28;20488;-57
2024/01/08 00:10:09;;;;;;;11.52;4.43;;;;;;;-16.52;50.39;100766.25;5076061;28;20043;-56
2024/01/08 00:12:35;;;;;;;11.38;4.15;;;;;;;-16.51;50.89;100760.53;5066470;28;20040;-57
2024/01/08 00:15:03;;;;;;;16.88;3.88;;;;;;;-16.47;50.96;100767.53;5068697;28;20042;-55
2024/01/08 00:17:32;;;;;;;16.90;3.63;;;;;;;-16.49;50.26;100759.94;5067552;28;20039;-56
2024/01/08 00:19:58;;;;;;;8.52;4.30;;;;;;;-16.43;50.92;100770.41;5081325;28;20066;-56
2024/01/08 00:22:25;;;;;;;10.88;4.20;;;;;;;-16.40;51.23;100762.38;5084410;28;20131;-56
2024/01/08 00:24:51;;;;;;;12.00;4.40;;;;;;;-16.39;50.75;100762.50;5049963;28;20037;-58
2024/01/08 00:27:18;;;;;;;12.88;4.60;;;;;;;-16.40;51.12;100765.72;5082178;28;20415;-57
2024/01/08 00:29:44;;;;;;;11.90;3.75;;;;;;;-16.38;50.40;100759.25;5082573;28;20040;-54
2024/01/08 00:32:11;;;;;;;12.98;4.00;;;;;;;-16.37;50.10;100757.63;5077911;28;20047;-59
2024/01/08 00:34:37;;;;;;;15.77;5.47;;;;;;;-16.46;51.05;100752.75;5033640;28;20434;-56
2024/01/08 00:37:03;;;;;;;8.68;3.90;;;;;;;-16.46;50.43;100752.75;5076495;28;20051;-57
2024/01/08 00:39:30;;;;;;;10.65;5.13;;;;;;;-16.45;51.02;100756.97;5082006;28;20151;-60
2024/01/08 00:41:56;;;;;;;10.60;3.38;;;;;;;-16.39;51.03;100756.66;5083549;28;20446;-56
2024/01/08 00:44:23;;;;;;;16.85;4.38;;;;;;;-16.37;50.01;100758.53;5079287;28;20039;-59
2024/01/08 00:46:49;;;;;;;11.52;4.32;;;;;;;-16.61;50.30;100710.75;5081123;28;20067;-56
2024/01/08 00:49:15;;;;;;;16.67;5.43;;;;;;;-16.33;50.42;100752.22;5081941;28;20035;-58
2024/01/08 00:51:41;;;;;;;16.02;6.20;;;;;;;-16.35;50.89;100757.06;5080868;28;20040;-56
2024/01/08 00:54:08;;;;;;;17.55;7.43;;;;;;;-16.41;51.02;100755.63;5059632;28;20043;-55
2024/01/08 00:56:34;;;;;;;27.30;8.77;;;;;;;-16.40;50.89;100754.91;5083487;28;20040;-56
2024/01/08 00:59:00;;;;;;;16.45;6.00;;;;;;;-16.37;50.83;100752.66;5082420;28;20032;-60
2024/01/08 01:01:26;;;;;;;27.98;9.52;;;;;;;-16.36;50.35;100757.78;5081910;28;20527;-58
2024/01/08 01:03:52;;;;;;;31.73;8.52;;;;;;;-16.33;50.61;100755.56;5078433;28;20079;-57
2024/01/08 01:06:22;;;;;;;29.67;8.27;;;;;;;-16.33;50.39;100752.22;5082113;28;20060;-60
2024/01/08 01:08:48;;;;;;;;;;;;;;;-16.27;49.89;100750.25;5082442;28;20123;-60
2024/01/08 01:11:15;;;;;;;26.35;9.18;;;;;;;-16.27;50.54;100755.22;5079358;28;20414;-57
2024/01/08 01:13:41;;;;;;;25.08;8.65;;;;;;;-16.33;50.70;100743.09;5061513;28;20258;-56
2024/01/08 01:16:08;;;;;;;33.95;8.50;;;;;;;-16.31;50.22;100754.81;5066802;28;20036;-57
2024/01/08 01:18:35;;;;;;;23.95;8.45;;;;;;;-16.33;50.30;100759.69;5067142;28;20038;-58
2024/01/08 01:21:01;;;;;;;32.42;10.27;;;;;;;-16.35;50.84;100761.16;5066429;28;20060;-54
2024/01/08 01:23:28;;;;;;;32.90;8.75;;;;;;;-16.33;51.28;100747.25;5065868;28;20040;-56
2024/01/08 01:25:54;;;;;;;25.30;8.55;;;;;;;-16.35;51.00;100746.22;5087594;28;20042;-56
2024/01/08 01:28:21;;;;;;;29.20;9.60;;;;;;;-16.26;51.23;100748.63;5066402;28;20040;-57
2024/01/08 01:30:47;;;;;;;27.67;8.18;;;;;;;-16.31;50.89;100744.88;5081534;28;20067;-58
2024/01/08 01:33:13;;;;;;;21.10;6.68;;;;;;;-16.31;51.08;100745.75;5082377;28;20075;-57
2024/01/08 01:35:39;;;;;;;19.58;8.02;;;;;;;-16.26;50.51;100753.59;5079813;28;20072;-59
2024/01/08 01:38:05;;;;;;;22.33;6.65;;;;;;;-16.28;51.07;100751.00;5065224;28;20531;-55
2024/01/08 01:40:31;;;;;;;25.08;7.50;;;;;;;-16.25;51.02;100753.75;5050186;28;20036;-58
2024/01/08 01:42:57;;;;;;;26.48;10.45;;;;;;;-16.31;51.26;100755.69;5080589;28;20423;-57
2024/01/08 01:45:24;;;;;;;16.73;7.53;;;;;;;-16.55;50.69;100704.66;5060590;28;20031;-57
2024/01/08 01:47:54;;;;;;;22.15;9.50;;;;;;;-16.25;51.44;100752.88;5030384;28;20055;-55
2024/01/08 01:50:24;;;;;;;29.88;7.97;;;;;;;-16.23;51.22;100754.78;5063672;28;20538;-55
2024/01/08 01:52:51;;;;;;;30.95;8.40;;;;;;;-16.28;51.12;100748.53;5083932;28;20139;-53
2024/01/08 01:55:17;;;;;;;27.60;7.80;;;;;;;-16.43;51.11;100707.38;5078438;28;20075;-54
2024/01/08 01:57:46;;;;;;;21.10;9.25;;;;;;;-16.19;50.94;100746.81;5077303;28;20035;-54
2024/01/08 02:00:14;;;;;;;24.85;8.10;;;;;;;-16.22;50.81;100756.50;5081624;28;20036;-56
2024/01/08 02:02:40;;;;;;;31.60;12.07;;;;;;;-16.23;50.99;100738.97;5070453;28;20035;-56
2024/01/08 02:05:07;;;;;;;30.65;10.35;;;;;;;-16.21;50.55;100744.91;5083044;28;20033;-58
2024/01/08 02:07:34;;;;;;;20.00;7.85;;;;;;;-16.54;50.99;100689.00;5086957;28;20040;-58
2024/01/08 02:10:01;;;;;;;34.67;11.68;;;;;;;-16.53;51.29;100692.34;5067287;28;20539;-55
2024/01/08 02:12:29;;;;;;;31.88;10.88;;;;;;;-16.28;50.71;100746.03;5082249;28;20051;-56
2024/01/08 02:14:55;;;;;;;25.05;9.50;;;;;;;-16.32;51.45;100739.00;5083984;28;20044;-52
2024/01/08 02:17:21;;;;;;;22.33;9.13;;;;;;;-16.47;50.92;100716.16;5071536;28;20068;-56
2024/01/08 02:19:48;;;;;;;25.67;9.75;;;;;;;-16.52;51.10;100699.94;5081183;28;20043;-53
2024/01/08 02:22:14;;;;;;;26.42;9.43;;;;;;;-16.23;51.44;100734.84;5085740;28;20035;-58
2024/01/08 02:24:41;;;;;;;29.45;9.02;;;;;;;-16.33;50.54;100735.63;5085067;28;20046;-55
2024/01/08 02:27:08;;;;;;;33.75;10.07;;;;;;;-16.30;51.30;100726.72;5083500;28;20040;-54
2024/01/08 02:29:35;;;;;;;23.65;8.13;;;;;;;-16.55;51.10;100669.84;5084737;28;20177;-56
2024/01/08 02:32:01;;;;;;;25.73;9.35;;;;;;;-16.30;50.79;100707.69;5065349;28;20040;-54
2024/01/08 02:34:27;;;;;;;24.52;8.32;;;;;;;-16.26;50.65;100713.78;5085080;28;20040;-56
2024/01/08 02:36:53;;;;;;;16.05;6.63;;;;;;;-16.31;50.74;100719.97;5052155;28;20047;-56
2024/01/08 02:39:22;;;;;;;16.35;7.30;;;;;;;-16.61;50.80;100721.56;5063838;28;20063;-56
2024/01/08 02:41:49;;;;;;;13.15;4.93;;;;;;;-16.76;51.01;100711.88;5082835;28;20138;-59
2024/01/08 02:44:15;;;;;;;19.33;6.63;;;;;;;-16.98;51.09;100707.50;5081422;28;20051;-55
2024/01/08 02:46:41;;;;;;;22.13;6.35;;;;;;;-16.83;51.69;100703.88;5081312;28;20036;-56
2024/01/08 02:49:08;;;;;;;6.82;2.90;;;;;;;-16.66;50.87;100705.38;5065005;28;20044;-56
2024/01/08 02:51:34;;;;;;;14.40;5.07;;;;;;;-16.76;50.76;100696.97;5083576;28;20059;-58
2024/01/08 02:54:00;;;;;;;17.33;5.10;;;;;;;-16.77;50.56;100711.00;5067197;28;20256;-58
2024/01/08 02:56:26;;;;;;;17.23;5.57;;;;;;;-17.14;50.90;100658.75;5083080;28;20093;-57
2024/01/08 02:58:53;;;;;;;10.45;5.00;;;;;;;-17.17;50.72;100660.97;5052875;28;20048;-54
2024/01/08 03:01:19;;;;;;;12.30;4.93;;;;;;;-16.90;51.09;100694.09;5069486;28;20127;-56
2024/01/08 03:03:45;;;;;;;11.90;4.25;;;;;;;-17.13;50.98;100711.09;5082119;28;20085;-58
2024/01/08 03:06:11;;;;;;;12.60;4.47;;;;;;;-17.59;51.03;100673.78;5067587;28;20115;-60
2024/01/08 03:08:38;;;;;;;18.45;4.82;;;;;;;-17.41;51.40;100672.06;5082469;28;20044;-56
2024/01/08 03:11:05;;;;;;;8.32;3.25;;;;;;;-17.01;51.46;100713.81;5080663;28;20504;-58
2024/01/08 03:13:31;;;;;;;12.40;4.90;;;;;;;-17.62;51.24;100613.91;5083312;28;20140;-54
2024/01/08 03:15:57;;;;;;;12.60;4.45;;;;;;;-17.00;51.23;100718.88;5083049;28;20503;-56
2024/01/08 03:18:23;;;;;;;12.50;4.50;;;;;;;-17.42;50.97;100633.91;5082771;28;20112;-55
2024/01/08 03:20:49;;;;;;;13.65;4.95;;;;;;;-17.01;51.36;100707.22;5077101;28;20047;-53
2024/01/08 03:23:16;;;;;;;12.45;3.70;;;;;;;-17.07;51.09;100703.31;5091674;28;20043;-54
2024/01/08 03:25:42;;;;;;;8.20;3.45;;;;;;;-17.56;51.66;100658.25;5080196;28;20040;-56
2024/01/08 03:28:08;;;;;;;6.63;2.60;;;;;;;-17.46;52.03;100708.91;5082785;28;20036;-53
2024/01/08 03:30:34;;;;;;;3.97;1.95;;;;;;;-17.73;51.95;100709.75;5064112;28;20161;-55
2024/01/08 03:33:01;;;;;;;14.18;4.35;;;;;;;-18.13;52.31;100670.44;5066114;28;20074;-55
2024/01/08 03:35:27;;;;;;;7.45;2.40;;;;;;;-18.25;52.86;100668.44;5087017;28;20679;-56
2024/01/08 03:37:53;;;;;;;12.60;3.03;;;;;;;-18.78;53.13;100619.66;5069907;28;20050;-55
2024/01/08 03:40:19;;;;;;;6.65;3.35;;;;;;;-18.30;52.93;100725.06;5068395;28;20032;-55
2024/01/08 03:42:46;;;;;;;4.95;1.38;;;;;;;-18.33;53.00;100723.91;5081225;28;20135;-54
2024/01/08 03:45:12;;;;;;;9.18;2.97;;;;;;;-18.49;53.36;100699.25;5066988;28;20130;-58
2024/01/08 03:47:39;;;;;;;5.22;3.30;;;;;;;-18.46;53.88;100699.53;5066366;28;20037;-59
2024/01/08 03:50:07;;;;;;;12.00;4.00;;;;;;;-18.48;53.56;100702.59;5078012;28;20032;-56
2024/01/08 03:52:33;;;;;;;8.75;3.03;;;;;;;-18.97;54.08;100675.63;5047389;28;20104;-53
2024/01/08 03:54:59;;;;;;;6.85;2.25;;;;;;;-19.03;54.47;100690.78;5084682;28;20064;-58
2024/01/08 03:57:25;;;;;;;4.45;2.08;;;;;;;-18.95;54.21;100701.44;5084733;28;20543;-56
2024/01/08 03:59:51;;;;;;;6.22;2.53;;;;;;;-18.94;54.42;100704.81;5070613;28;20308;-58
2024/01/08 04:02:18;;;;;;;10.43;3.38;;;;;;;-18.79;54.96;100697.25;5082694;28;20041;-59
2024/01/08 04:04:44;;;;;;;3.33;1.00;;;;;;;-18.89;54.53;100707.00;5067490;28;20050;-59
2024/01/08 04:07:11;;;;;;;6.28;2.70;;;;;;;-19.04;55.31;100710.44;5084594;28;20040;-57
2024/01/08 04:09:39;;;;;;;3.53;1.60;;;;;;;-19.14;55.29;100708.69;5068426;28;20048;-58
2024/01/08 04:12:05;;;;;;;5.03;2.45;;;;;;;-19.10;55.71;100698.34;5087025;28;20094;-57
2024/01/08 04:14:32;;;;;;;11.27;3.22;;;;;;;-19.19;55.14;100699.94;5090686;28;20110;-58
2024/01/08 04:16:58;;;;;;;8.10;1.40;;;;;;;-19.25;55.39;100686.06;5082790;28;20503;-56
2024/01/08 04:19:24;;;;;;;4.13;2.55;;;;;;;-19.38;55.42;100697.28;5081683;28;20098;-55
2024/01/08 04:21:50;;;;;;;3.67;1.90;;;;;;;-19.50;55.42;100692.72;5088928;28;20043;-58
2024/01/08 04:24:16;;;;;;;6.60;3.42;;;;;;;-19.58;55.54;100689.53;5081643;28;20573;-57
2024/01/08 04:26:42;;;;;;;5.38;2.42;;;;;;;-19.63;55.44;100679.88;5082081;28;20047;-55
2024/01/08 04:29:10;;;;;;;3.42;2.83;;;;;;;-19.68;56.32;100694.28;5066167;28;20056;-54
2024/01/08 04:31:37;;;;;;;1.45;1.25;;;;;;;-19.62;56.48;100696.50;5067049;28;20074;-58
2024/01/08 04:34:03;;;;;;;1.50;1.17;;;;;;;-19.66;56.98;100695.28;5066464;28;20050;-57
2024/01/08 04:36:29;;;;;;;10.35;3.17;;;;;;;-19.68;56.26;100691.81;5066850;28;20131;-55
2024/01/08 04:38:55;;;;;;;6.78;2.33;;;;;;;-19.84;56.79;100693.47;5081594;28;20072;-57
2024/01/08 04:41:22;;;;;;;7.25;3.22;;;;;;;-19.93;57.46;100690.06;5082523;28;20070;-56
2024/01/08 04:43:48;;;;;;;9.13;2.55;;;;;;;-20.00;57.25;100692.66;5064731;28;20037;-59
2024/01/08 04:46:15;;;;;;;9.60;2.58;;;;;;;-20.39;56.84;100636.03;5067109;28;20484;-58
2024/01/08 04:48:41;;;;;;;4.05;1.88;;;;;;;-20.06;56.83;100694.53;5068935;28;20042;-55
2024/01/08 04:51:08;;;;;;;1.88;1.35;;;;;;;-20.19;56.75;100656.91;5068163;28;20056;-56
2024/01/08 04:53:37;;;;;;;3.03;1.63;;;;;;;-20.10;56.82;100640.53;5064771;28;20052;-57
2024/01/08 04:56:04;;;;;;;12.50;2.28;;;;;;;-20.16;57.26;100642.38;5078561;28;20051;-56
2024/01/08 04:58:30;;;;;;;4.00;2.80;;;;;;;-20.01;57.34;100683.50;5083409;28;20048;-58
2024/01/08 05:00:56;;;;;;;2.97;1.60;;;;;;;-19.99;57.27;100690.31;5082249;28;20047;-58
2024/01/08 05:03:23;;;;;;;3.15;0.75;;;;;;;-20.08;57.51;100693.47;5081122;28;20420;-57
2024/01/08 05:05:49;;;;;;;2.30;1.52;;;;;;;-20.17;57.56;100688.50;5066490;28;20423;-60
2024/01/08 05:08:15;;;;;;;3.65;1.75;;;;;;;-20.17;56.57;100675.25;5081417;28;20598;-59
2024/01/08 05:10:41;;;;;;;6.13;3.10;;;;;;;-20.09;57.51;100679.38;5079598;28;20036;-58
2024/01/08 05:13:08;;;;;;;6.60;2.88;;;;;;;-19.99;56.93;100679.59;5062805;28;20039;-54
2024/01/08 05:15:34;;;;;;;3.45;2.00;;;;;;;-19.96;57.07;100693.13;5079884;28;20044;-58
2024/01/08 05:18:01;;;;;;;1.00;0.65;;;;;;;-19.97;56.49;100690.50;5065910;28;20046;-56
2024/01/08 05:20:27;;;;;;;2.97;0.93;;;;;;;-20.00;57.57;100683.66;5079676;28;20045;-57
2024/01/08 05:22:53;;;;;;;6.22;3.30;;;;;;;-19.96;56.98;100687.31;5084103;28;20044;-58
2024/01/08 05:25:19;;;;;;;4.80;2.25;;;;;;;-19.98;57.60;100691.22;5077900;28;20032;-58
2024/01/08 05:27:45;;;;;;;0.63;0.52;;;;;;;-20.05;57.08;100689.75;5077801;28;20051;-53
2024/01/08 05:30:11;;;;;;;1.65;1.17;;;;;;;-19.97;57.42;100688.91;5048443;28;20458;-57
2024/01/08 05:32:38;;;;;;;8.20;2.67;;;;;;;-19.81;56.58;100691.31;5052013;28;20071;-56
2024/01/08 05:35:04;;;;;;;5.30;2.80;;;;;;;-19.69;57.45;100687.59;5080825;28;20040;-60
2024/01/08 05:37:31;;;;;;;2.40;1.50;;;;;;;-19.71;55.92;100689.00;5068258;28;20040;-55
2024/01/08 05:39:57;;;;;;;5.88;1.95;;;;;;;-19.74;57.19;100690.31;5083899;28;20534;-59
2024/01/08 05:42:23;;;;;;;5.78;1.63;;;;;;;-19.86;56.57;100683.44;5080338;28;20614;-56
2024/01/08 05:44:49;;;;;;;9.88;2.75;;;;;;;-19.88;57.45;100682.38;5089456;28;20117;-54
2024/01/08 05:47:16;;;;;;;9.57;2.95;;;;;;;-19.78;56.18;100685.81;5083754;28;20036;-56
2024/01/08 05:49:43;;;;;;;5.30;1.98;;;;;;;-19.75;56.47;100691.03;5051021;28;20036;-55
2024/01/08 05:52:09;;;;;;;9.60;3.13;;;;;;;-19.83;56.84;100687.78;5086739;28;20044;-58
2024/01/08 05:54:36;;;;;;;5.03;2.83;;;;;;;-19.75;56.19;100686.09;5086152;28;20039;-56
2024/01/08 05:57:03;;;;;;;4.28;1.35;;;;;;;-20.01;56.80;100631.56;5068500;28;20050;-59
2024/01/08 05:59:29;;;;;;;7.38;3.58;;;;;;;-19.78;56.96;100684.22;5082904;28;20529;-58
2024/01/08 06:01:55;;;;;;;2.75;1.98;;;;;;;-20.34;56.62;100579.63;5084727;28;20047;-55
2024/01/08 06:04:22;;;;;;;1.85;1.27;;;;;;;-19.56;57.30;100679.75;5083386;28;20047;-60
2024/01/08 06:06:49;;;;;;;0.98;0.88;;;;;;;-19.56;56.65;100684.69;5084211;28;20040;-59
2024/01/08 06:09:18;;;;;;;2.97;1.77;;;;;;;-19.47;56.78;100688.97;5095634;28;20082;-55
2024/01/08 06:11:44;;;;;;;5.95;2.67;;;;;;;-19.53;56.42;100676.00;5052449;28;20143;-59
2024/01/08 06:14:10;;;;;;;3.70;1.50;;;;;;;-19.46;56.16;100688.22;5070256;28;20119;-58
2024/01/08 06:16:37;;;;;;;6.97;1.70;;;;;;;-19.48;56.06;100693.78;5080041;28;20063;-53
2024/01/08 06:19:03;;;;;;;9.75;2.88;;;;;;;-19.57;56.83;100683.81;5068920;28;20044;-56
2024/01/08 06:21:29;;;;;;;3.45;1.60;;;;;;;-19.96;56.37;100613.97;5080432;28;20036;-62
2024/01/08 06:23:56;;;;;;;5.55;2.42;;;;;;;-19.40;55.83;100666.53;5057344;28;20073;-58
2024/01/08 06:26:23;;;;;;;4.47;3.15;;;;;;;-19.24;56.07;100666.41;5051777;28;20060;-55
2024/01/08 06:28:49;;;;;;;11.52;3.53;;;;;;;-19.74;55.76;100591.34;5069977;28;20069;-58
2024/01/08 06:31:15;;;;;;;3.83;2.22;;;;;;;-19.43;55.84;100666.22;5094561;28;20048;-58
2024/01/08 06:33:43;;;;;;;2.55;1.40;;;;;;;-19.46;56.22;100665.06;5083281;28;20032;-56
2024/01/08 06:36:09;;;;;;;5.82;2.33;;;;;;;-19.61;56.79;100621.50;5068219;28;20056;-58
2024/01/08 06:38:35;;;;;;;4.60;1.80;;;;;;;-19.12;56.28;100679.13;5060823;28;20050;-60
2024/01/08 06:41:01;;;;;;;4.85;2.00;;;;;;;-18.97;56.33;100674.03;5050821;28;20094;-58
2024/01/08 06:43:28;;;;;;;5.78;2.67;;;;;;;-19.33;55.88;100618.47;5081842;28;20715;-55
2024/01/08 06:45:54;;;;;;;2.58;1.90;;;;;;;-19.02;56.08;100679.28;5083352;28;20040;-58
2024/01/08 06:48:20;;;;;;;2.42;1.10;;;;;;;-19.06;55.58;100675.63;5084618;28;20507;-58
2024/01/08 06:50:46;;;;;;;6.68;2.28;;;;;;;-19.07;56.56;100668.94;5082247;28;20032;-56
2024/01/08 06:53:13;;;;;;;5.32;2.28;;;;;;;-19.12;56.75;100669.22;5064576;28;20044;-54
2024/01/08 06:55:39;;;;;;;9.20;3.20;;;;;;;-18.80;56.18;100664.88;5084179;28;20040;-58
2024/01/08 06:58:05;;;;;;;5.78;2.13;;;;;;;-18.57;55.66;100667.91;5081459;28;20051;-58
2024/01/08 07:00:32;;;;;;;7.57;3.58;;;;;;;-18.51;55.91;100670.94;5090348;28;20040;-57
2024/01/08 07:02:58;;;;;;;9.45;2.67;;;;;;;-18.23;55.47;100660.41;5072763;28;20620;-58
2024/01/08 07:05:25;;;;;;;1.45;1.10;;;;;;;-17.56;54.63;100673.16;5077545;28;20037;-57
2024/01/08 07:07:52;;;;;;;1.38;0.98;;;;;;;-16.80;53.86;100664.34;5061025;28;20036;-56
2024/01/08 07:10:19;;;;;;;3.30;0.60;;;;;;;-16.05;52.84;100674.19;5064218;28;20131;-58
2024/01/08 07:12:46;;;;;;;8.00;3.15;;;;;;;-15.52;51.85;100621.41;5078698;28;20044;-56
2024/01/08 07:15:38;;;;;;;12.30;4.55;;;;;;;-14.27;50.74;100663.88;5080008;28;20053;-58
2024/01/08 07:18:04;;;;;;;9.43;3.88;;;;;;;-14.08;49.84;100653.72;5083035;28;20064;-56
2024/01/08 07:20:31;;;;;;;11.80;2.80;;;;;;;-13.76;48.61;100660.41;5069667;28;22178;-55
2024/01/08 07:22:57;;;;;;;3.25;2.03;;;;;;;-14.44;48.78;100629.28;5075776;28;20044;-59
2024/01/08 07:25:23;;;;;;;8.10;4.07;;;;;;;-14.18;49.26;100652.09;5065829;28;20067;-57
2024/01/08 07:27:49;;;;;;;6.78;3.45;;;;;;;-13.69;48.16;100664.28;5078902;28;20039;-59
2024/01/08 07:30:15;;;;;;;12.93;4.60;;;;;;;-13.57;48.31;100661.84;5079211;28;20036;-61
2024/01/08 07:32:42;;;;;;;11.75;3.70;;;;;;;-13.75;47.36;100593.81;5069872;28;20050;-59
2024/01/08 07:35:08;;;;;;;2.80;1.40;;;;;;;-13.37;46.72;100662.59;5071083;28;20511;-54
2024/01/08 07:37:34;;;;;;;9.35;4.55;;;;;;;-13.65;46.98;100660.38;5069010;28;20046;-58
2024/01/08 07:40:04;;;;;;;10.23;3.10;;;;;;;-13.64;47.00;100650.50;5069809;28;20070;-56
2024/01/08 07:42:31;;;;;;;13.27;3.33;;;;;;;-13.33;46.62;100648.66;5059089;28;20048;-61
2024/01/08 07:44:58;;;;;;;7.47;3.22;;;;;;;-13.23;46.87;100642.72;5063895;28;20059;-60
2024/01/08 07:47:24;;;;;;;10.05;4.00;;;;;;;-12.96;45.95;100605.56;5073856;28;20461;-60
2024/01/08 07:49:50;;;;;;;10.35;3.97;;;;;;;-12.97;45.67;100602.94;5049064;28;20045;-61
2024/01/08 07:52:17;;;;;;;11.57;4.05;;;;;;;-12.28;45.05;100641.31;5074557;28;20044;-57
2024/01/08 07:54:44;;;;;;;14.23;5.35;;;;;;;-12.14;44.27;100601.41;5070648;28;20040;-59
2024/01/08 07:57:10;;;;;;;7.80;3.58;;;;;;;-11.96;43.04;100593.44;5072895;28;20036;-61
2024/01/08 07:59:36;;;;;;;11.65;4.03;;;;;;;-12.23;43.45;100592.41;5069291;28;20504;-61
2024/01/08 08:02:02;;;;;;;18.42;5.15;;;;;;;-12.17;43.79;100638.81;5051001;28;20040;-56
2024/01/08 08:04:28;;;;;;;13.20;4.75;;;;;;;-11.09;42.89;100635.28;5071757;28;20044;-59
2024/01/08 08:06:54;;;;;;;10.73;3.50;;;;;;;-10.62;42.17;100635.88;5086698;28;20039;-54
2024/01/08 08:09:21;;;;;;;10.55;3.40;;;;;;;-10.33;41.64;100626.91;5070468;28;20127;-59
2024/01/08 08:11:47;;;;;;;4.43;2.47;;;;;;;-10.70;41.70;100626.97;5067387;28;20737;-57
2024/01/08 08:14:13;;;;;;;12.90;4.03;;;;;;;-11.00;41.58;100583.19;5070524;28;20544;-56
2024/01/08 08:16:40;;;;;;;7.03;3.05;;;;;;;-10.54;41.59;100544.28;5052679;28;20047;-57
2024/01/08 08:19:07;;;;;;;8.93;3.97;;;;;;;-9.73;40.69;100618.00;5068773;28;20041;-59
2024/01/08 08:21:33;;;;;;;10.25;4.57;;;;;;;-9.48;40.74;100570.88;5070712;28;20075;-59
2024/01/08 08:24:03;;;;;;;12.48;4.70;;;;;;;-9.09;40.51;100610.94;5061355;28;20040;-59
2024/01/08 08:26:30;;;;;;;2.97;2.05;;;;;;;-9.25;39.14;100610.84;5078077;28;20038;-57
2024/01/08 08:28:56;;;;;;;20.55;4.55;;;;;;;-9.92;40.58;100603.41;5082679;28;20051;-59
2024/01/08 08:31:22;;;;;;;15.50;5.20;;;;;;;-10.12;39.81;100564.50;5064527;28;20044;-58
2024/01/08 08:33:49;;;;;;;10.57;4.30;;;;;;;-8.98;39.27;100608.19;5065199;28;20105;-58
2024/01/08 08:36:14;;;;;;;11.98;4.45;;;;;;;-8.34;39.18;100560.63;5065894;28;20064;-55
2024/01/08 08:38:40;;;;;;;9.10;3.58;;;;;;;-7.43;38.24;100549.41;5071328;28;20167;-56
2024/01/08 08:41:07;;;;;;;11.98;4.78;;;;;;;-6.94;37.47;100585.56;5075415;28;20040;-55
2024/01/08 08:43:34;;;;;;;9.15;4.18;;;;;;;-6.86;37.06;100585.16;5085800;28;20044;-58
2024/01/08 08:46:00;;;;;;;13.65;6.00;;;;;;;-7.02;37.22;100580.13;5070899;28;20039;-59
2024/01/08 08:48:28;;;;;;;13.48;4.78;;;;;;;-6.62;37.05;100569.44;5069516;28;20535;-59
2024/01/08 08:50:54;;;;;;;15.40;6.00;;;;;;;-6.70;36.45;100523.56;5073233;28;20032;-59
2024/01/08 08:53:23;;;;;;;14.63;5.78;;;;;;;-5.65;36.69;100568.84;5068403;28;20040;-59
2024/01/08 08:55:51;;;;;;;15.55;5.80;;;;;;;-5.17;35.86;100565.03;5052092;28;20121;-58
2024/01/08 08:58:17;;;;;;;15.18;5.53;;;;;;;-5.29;35.12;100524.84;5065643;28;20082;-60
2024/01/08 09:00:44;;;;;;;13.65;5.75;;;;;;;-5.48;35.81;100572.13;5063371;28;20047;-55
2024/01/08 09:03:10;;;;;;;19.33;6.22;;;;;;;-5.48;35.74;100564.53;5074648;28;20047;-57
2024/01/08 09:05:37;;;;;;;15.15;5.30;;;;;;;-5.00;35.34;100561.53;5072696;28;20093;-57
2024/01/08 09:08:03;;;;;;;20.13;6.97;;;;;;;-4.30;34.81;100559.31;5074924;28;20044;-59
2024/01/08 09:10:30;;;;;;;15.00;5.32;;;;;;;-3.67;34.18;100463.44;5063803;28;20505;-57
2024/01/08 09:12:57;;;;;;;19.15;5.97;;;;;;;-2.37;33.74;100539.00;5078295;28;20094;-59
2024/01/08 09:15:23;;;;;;;12.85;5.25;;;;;;;-1.85;33.04;100536.31;5069416;28;20078;-57
2024/01/08 09:17:50;;;;;;;16.13;5.80;;;;;;;-2.25;33.02;100508.78;5083765;28;20045;-55
2024/01/08 09:20:19;;;;;;;16.48;6.07;;;;;;;-2.86;33.87;100522.97;5048574;28;20102;-56
2024/01/08 09:22:45;;;;;;;14.52;5.38;;;;;;;-2.68;33.54;100523.59;5083186;28;20127;-56
2024/01/08 09:25:12;;;;;;;16.33;5.78;;;;;;;-3.00;33.34;100525.06;5081480;28;20419;-59
2024/01/08 09:27:39;;;;;;;18.15;5.95;;;;;;;-2.73;32.88;100486.94;5074259;28;20693;-62
2024/01/08 09:30:06;;;;;;;19.73;6.20;;;;;;;-2.41;32.73;100519.34;5063925;28;20071;-64
2024/01/08 09:32:32;;;;;;;15.80;5.72;;;;;;;-1.87;33.00;100501.41;5048393;28;20048;-65
2024/01/08 09:34:59;;;;;;;16.83;6.30;;;;;;;-0.78;32.57;100511.97;5068877;28;20082;-53
2024/01/08 09:37:25;;;;;;;15.45;6.18;;;;;;;0.00;31.50;100496.75;5066334;28;20071;-55
2024/01/08 09:39:53;;;;;;;18.02;6.85;;;;;;;-0.19;30.88;100469.06;5070592;28;20566;-53
2024/01/08 09:42:20;;;;;;;14.18;5.43;;;;;;;-0.01;30.81;100500.13;5073123;28;20032;-53
2024/01/08 09:44:50;;;;;;;16.58;6.30;;;;;;;-1.15;31.31;100464.25;5084977;28;20068;-52
2024/01/08 09:47:17;;;;;;;18.15;6.75;;;;;;;-0.86;30.97;100495.63;5078333;28;20045;-52
2024/01/08 09:49:45;;;;;;;15.30;6.30;;;;;;;-0.62;30.56;100408.50;5075248;28;20036;-54
2024/01/08 09:52:13;;;;;;;13.27;6.32;;;;;;;-0.11;30.14;100447.97;5065018;28;20055;-64
2024/01/08 09:54:42;;;;;;;14.90;6.07;;;;;;;-0.57;30.28;100481.84;5069419;28;20081;-54
2024/01/08 09:57:09;;;;;;;15.18;5.85;;;;;;;-0.32;29.97;100478.16;5074958;28;20044;-52
2024/01/08 09:59:36;;;;;;;17.10;6.38;;;;;;;-2.08;30.85;100472.78;5082843;28;20086;-55
2024/01/08 10:02:04;;;;;;;15.15;5.70;;;;;;;-4.02;31.37;100464.72;5063503;28;20043;-54
2024/01/08 10:04:31;;;;;;;19.33;6.35;;;;;;;-6.20;33.18;100418.78;5058418;28;20044;-53
2024/01/08 10:07:07;;;;;;;19.70;6.20;;;;;;;-6.63;34.46;100469.94;5062800;28;20028;-56
2024/01/08 10:09:33;;;;;;;13.57;5.90;;;;;;;-7.38;34.61;100474.75;5062167;28;20052;-55
2024/01/08 10:12:00;;;;;;;16.67;6.22;;;;;;;-8.22;36.25;100460.38;5081034;28;20075;-58
2024/01/08 10:14:26;;;;;;;16.80;5.97;;;;;;;-8.60;36.62;100478.53;5079322;28;20693;-55
2024/01/08 10:16:55;;;;;;;13.80;4.68;;;;;;;-9.10;36.82;100459.75;5081453;28;20101;-53
2024/01/08 10:19:23;;;;;;;13.43;4.20;;;;;;;-10.04;38.00;100409.91;5060982;28;20072;-53
2024/01/08 10:22:10;;;;;;;18.60;4.53;;;;;;;-9.98;38.60;100462.22;5031195;28;20048;-55
2024/01/08 10:24:38;;;;;;;17.75;5.50;;;;;;;-10.23;39.54;100449.88;5086132;28;20230;-57
2024/01/08 10:27:07;;;;;;;12.00;4.55;;;;;;;-10.59;39.56;100453.56;5068094;28;20511;-56
2024/01/08 10:29:38;;;;;;;16.17;4.50;;;;;;;-10.77;40.37;100445.75;5084282;28;20528;-53
2024/01/08 10:32:05;;;;;;;9.07;3.25;;;;;;;-11.24;41.37;100370.00;5080778;28;20036;-55
2024/01/08 10:34:34;;;;;;;13.50;4.63;;;;;;;-11.12;41.72;100432.66;5083685;28;20051;-54
2024/01/08 10:37:00;;;;;;;11.82;4.45;;;;;;;-11.54;41.89;100399.81;5084021;28;20036;-55
2024/01/08 10:39:30;;;;;;;11.40;3.92;;;;;;;-11.17;41.81;100439.88;5068969;28;20046;-53
2024/01/08 10:42:00;;;;;;;;;;;;;;;-11.36;42.42;100429.47;5078931;28;20166;-54
2024/01/08 10:44:26;;;;;;;9.85;3.75;;;;;;;-11.94;43.25;100376.34;5067837;28;19923;-53
2024/01/08 10:47:00;;;;;;;12.07;4.30;;;;;;;-12.02;43.93;100426.84;5069224;28;20047;-55
2024/01/08 10:49:32;;;;;;;9.70;3.92;;;;;;;-12.09;44.19;100416.31;5077263;28;20036;-56
2024/01/08 10:52:00;;;;;;;10.55;2.72;;;;;;;-12.06;44.43;100412.38;5076329;28;20131;-54
2024/01/08 10:54:51;;;;;;;10.50;3.58;;;;;;;-11.06;44.52;100407.94;5090157;28;20037;-54
2024/01/08 10:57:18;;;;;;;11.50;4.40;;;;;;;-9.53;43.28;100370.94;5076919;28;20094;-55
2024/01/08 10:59:45;;;;;;;12.30;4.18;;;;;;;-7.66;41.58;100403.47;5081909;28;20684;-54
2024/01/08 11:02:14;;;;;;;10.30;3.75;;;;;;;-6.17;40.22;100365.75;5067539;28;20035;-51
2024/01/08 11:04:43;;;;;;;15.35;3.83;;;;;;;-4.65;38.57;100393.00;5069647;28;20139;-54
2024/01/08 11:07:15;;;;;;;;;;;;;;;-4.50;36.77;100393.56;5062780;28;20055;-54
2024/01/08 11:09:44;;;;;;;15.23;5.00;;;;;;;-4.31;36.30;100384.97;5072320;28;19916;-57
2024/01/08 11:12:11;;;;;;;14.70;4.15;;;;;;;-3.30;35.79;100385.09;5072930;28;20044;-58